sensor_id;sensor_type;location;lat;lon;timestamp;pressure;altitude;pressure_sealevel;temperature;humidity
55291;BME280;41155;39.768;2.712;2023-04-20T00:01:58;101015.50;;;14.99;64.27
55291;BME280;41155;39.768;2.712;2023-04-20T00:04:32;100914.09;;;14.32;64.13
55291;BME280;41155;39.768;2.712;2023-04-20T00:07:07;100978.78;;;14.86;64.65
55291;BME280;41155;39.768;2.712;2023-04-20T00:09:32;100925.28;;;14.56;64.20
55291;BME280;41155;39.768;2.712;2023-04-20T00:11:58;100957.31;;;14.44;65.76
55291;BME280;41155;39.768;2.712;2023-04-20T00:14:32;100949.69;;;14.31;66.75
55291;BME280;41155;39.768;2.712;2023-04-20T00:17:01;100989.41;;;14.67;66.16
55291;BME280;41155;39.768;2.712;2023-04-20T00:19:26;100943.72;;;14.39;66.40
55291;BME280;41155;39.768;2.712;2023-04-20T00:21:53;100958.94;;;14.45;66.89
55291;BME280;41155;39.768;2.712;2023-04-20T00:24:18;100978.00;;;14.55;66.93
55291;BME280;41155;39.768;2.712;2023-04-20T00:26:43;100945.34;;;14.40;66.99
55291;BME280;41155;39.768;2.712;2023-04-20T00:29:09;100872.53;;;14.01;67.10
55291;BME280;41155;39.768;2.712;2023-04-20T00:31:35;100970.94;;;14.64;66.55
55291;BME280;41155;39.768;2.712;2023-04-20T00:34:01;100852.97;;;13.84;66.61
55291;BME280;41155;39.768;2.712;2023-04-20T00:36:29;100958.97;;;14.65;66.12
55291;BME280;41155;39.768;2.712;2023-04-20T00:38:55;100956.53;;;14.64;66.01
55291;BME280;41155;39.768;2.712;2023-04-20T00:41:21;100922.25;;;14.37;65.76
55291;BME280;41155;39.768;2.712;2023-04-20T00:43:51;100951.09;;;14.64;65.57
55291;BME280;41155;39.768;2.712;2023-04-20T00:46:17;100923.88;;;14.48;65.42
55291;BME280;41155;39.768;2.712;2023-04-20T00:48:43;100941.03;;;14.59;65.40
55291;BME280;41155;39.768;2.712;2023-04-20T00:51:09;100851.91;;;14.10;65.17
55291;BME280;41155;39.768;2.712;2023-04-20T00:53:35;100851.34;;;14.13;65.18
55291;BME280;41155;39.768;2.712;2023-04-20T00:56:01;100898.34;;;14.39;65.04
55291;BME280;41155;39.768;2.712;2023-04-20T00:58:27;100849.72;;;14.07;65.26
55291;BME280;41155;39.768;2.712;2023-04-20T01:00:52;100773.16;;;13.54;65.57
55291;BME280;41155;39.768;2.712;2023-04-20T01:03:18;100907.31;;;14.09;66.50
55291;BME280;41155;39.768;2.712;2023-04-20T01:05:44;100877.97;;;14.06;66.61
55291;BME280;41155;39.768;2.712;2023-04-20T01:08:09;100883.94;;;14.13;66.82
55291;BME280;41155;39.768;2.712;2023-04-20T01:10:35;100861.13;;;13.94;67.20
55291;BME280;41155;39.768;2.712;2023-04-20T01:13:01;100857.59;;;13.93;67.52
55291;BME280;41155;39.768;2.712;2023-04-20T01:15:27;100893.44;;;14.16;67.62
55291;BME280;41155;39.768;2.712;2023-04-20T01:18:02;100869.00;;;14.00;67.71
55291;BME280;41155;39.768;2.712;2023-04-20T01:20:30;100816.88;;;13.78;67.56
55291;BME280;41155;39.768;2.712;2023-04-20T01:22:55;100877.72;;;14.18;67.39
55291;BME280;41155;39.768;2.712;2023-04-20T01:25:21;100819.03;;;13.76;66.80
55291;BME280;41155;39.768;2.712;2023-04-20T01:27:47;100852.69;;;13.90;67.14
55291;BME280;41155;39.768;2.712;2023-04-20T01:30:13;100821.72;;;13.71;67.50
55291;BME280;41155;39.768;2.712;2023-04-20T01:32:39;100875.53;;;14.10;66.97
55291;BME280;41155;39.768;2.712;2023-04-20T01:35:05;100822.31;;;13.83;66.97
55291;BME280;41155;39.768;2.712;2023-04-20T01:37:31;100734.03;;;13.19;66.84
55291;BME280;41155;39.768;2.712;2023-04-20T01:39:56;100853.53;;;14.06;66.47
55291;BME280;41155;39.768;2.712;2023-04-20T01:42:22;100765.78;;;13.29;67.35
55291;BME280;41155;39.768;2.712;2023-04-20T01:44:48;100873.06;;;13.93;67.28
55291;BME280;41155;39.768;2.712;2023-04-20T01:47:22;100805.94;;;13.42;67.31
55291;BME280;41155;39.768;2.712;2023-04-20T01:49:47;100843.69;;;13.64;67.62
55291;BME280;41155;39.768;2.712;2023-04-20T01:52:13;100830.13;;;13.54;68.22
55291;BME280;41155;39.768;2.712;2023-04-20T01:54:39;100863.25;;;13.66;68.65
55291;BME280;41155;39.768;2.712;2023-04-20T01:57:04;100784.47;;;13.30;68.22
55291;BME280;41155;39.768;2.712;2023-04-20T01:59:30;100785.25;;;13.21;68.19
55291;BME280;41155;39.768;2.712;2023-04-20T02:01:55;100811.66;;;13.41;68.58
55291;BME280;41155;39.768;2.712;2023-04-20T02:04:21;100780.09;;;13.24;68.30
55291;BME280;41155;39.768;2.712;2023-04-20T02:06:47;100848.03;;;13.65;68.41
55291;BME280;41155;39.768;2.712;2023-04-20T02:09:13;100828.75;;;13.51;68.67
55291;BME280;41155;39.768;2.712;2023-04-20T02:11:38;100777.44;;;13.29;68.47
55291;BME280;41155;39.768;2.712;2023-04-20T02:14:04;100767.34;;;13.25;68.25
55291;BME280;41155;39.768;2.712;2023-04-20T02:16:29;100801.91;;;13.55;68.00
55291;BME280;41155;39.768;2.712;2023-04-20T02:18:55;100838.75;;;13.36;69.15
55291;BME280;41155;39.768;2.712;2023-04-20T02:21:21;100792.56;;;13.20;68.51
55291;BME280;41155;39.768;2.712;2023-04-20T02:23:47;100841.78;;;13.60;68.30
55291;BME280;41155;39.768;2.712;2023-04-20T02:26:12;100808.94;;;13.46;68.08
55291;BME280;41155;39.768;2.712;2023-04-20T02:28:38;100738.00;;;12.91;68.12
55291;BME280;41155;39.768;2.712;2023-04-20T02:31:04;100743.97;;;12.88;68.02
55291;BME280;41155;39.768;2.712;2023-04-20T02:33:30;100746.16;;;12.96;67.85
55291;BME280;41155;39.768;2.712;2023-04-20T02:35:59;100791.00;;;13.29;68.13
55291;BME280;41155;39.768;2.712;2023-04-20T02:38:25;100838.25;;;13.59;67.87
55291;BME280;41155;39.768;2.712;2023-04-20T02:40:50;100739.38;;;12.99;67.96
55291;BME280;41155;39.768;2.712;2023-04-20T02:43:18;100833.13;;;13.73;67.39
55291;BME280;41155;39.768;2.712;2023-04-20T02:45:44;100832.31;;;13.72;66.64
55291;BME280;41155;39.768;2.712;2023-04-20T02:48:10;100832.59;;;13.66;66.70
55291;BME280;41155;39.768;2.712;2023-04-20T02:50:36;100756.75;;;13.08;67.09
55291;BME280;41155;39.768;2.712;2023-04-20T02:53:02;100829.56;;;13.52;67.26
55291;BME280;41155;39.768;2.712;2023-04-20T02:55:28;100782.53;;;13.21;67.29
55291;BME280;41155;39.768;2.712;2023-04-20T02:57:54;100775.69;;;12.98;67.58
55291;BME280;41155;39.768;2.712;2023-04-20T03:00:19;100799.09;;;13.19;67.72
55291;BME280;41155;39.768;2.712;2023-04-20T03:02:45;100831.72;;;13.40;67.44
55291;BME280;41155;39.768;2.712;2023-04-20T03:05:11;100783.34;;;13.21;67.44
55291;BME280;41155;39.768;2.712;2023-04-20T03:07:36;100799.69;;;13.31;67.19
55291;BME280;41155;39.768;2.712;2023-04-20T03:10:02;100822.50;;;13.41;67.66
55291;BME280;41155;39.768;2.712;2023-04-20T03:12:28;100815.69;;;13.33;67.99
55291;BME280;41155;39.768;2.712;2023-04-20T03:14:56;100767.00;;;12.91;68.04
55291;BME280;41155;39.768;2.712;2023-04-20T03:17:36;100825.66;;;13.22;68.28
55291;BME280;41155;39.768;2.712;2023-04-20T03:20:01;100759.94;;;12.84;68.17
55291;BME280;41155;39.768;2.712;2023-04-20T03:22:27;100795.00;;;13.11;68.35
55291;BME280;41155;39.768;2.712;2023-04-20T03:24:52;100805.03;;;13.21;68.43
55291;BME280;41155;39.768;2.712;2023-04-20T03:27:18;100734.16;;;12.77;68.22
55291;BME280;41155;39.768;2.712;2023-04-20T03:29:43;100808.91;;;13.25;67.84
55291;BME280;41155;39.768;2.712;2023-04-20T03:32:09;100804.50;;;13.24;67.95
55291;BME280;41155;39.768;2.712;2023-04-20T03:34:34;100771.59;;;12.95;68.06
55291;BME280;41155;39.768;2.712;2023-04-20T03:37:00;100706.69;;;12.48;68.02
55291;BME280;41155;39.768;2.712;2023-04-20T03:39:26;100762.66;;;12.95;68.06
55291;BME280;41155;39.768;2.712;2023-04-20T03:41:51;100710.78;;;12.60;67.92
55291;BME280;41155;39.768;2.712;2023-04-20T03:44:17;100764.59;;;12.99;68.03
55291;BME280;41155;39.768;2.712;2023-04-20T03:46:42;100804.75;;;13.12;67.81
55291;BME280;41155;39.768;2.712;2023-04-20T03:49:08;100715.66;;;12.58;67.79
55291;BME280;41155;39.768;2.712;2023-04-20T03:51:34;100794.72;;;13.08;67.90
55291;BME280;41155;39.768;2.712;2023-04-20T03:54:02;100715.06;;;12.46;68.06
55291;BME280;41155;39.768;2.712;2023-04-20T03:56:27;100759.13;;;12.89;67.74
55291;BME280;41155;39.768;2.712;2023-04-20T03:58:53;100772.41;;;12.85;67.82
55291;BME280;41155;39.768;2.712;2023-04-20T04:01:18;100701.72;;;12.34;68.00
55291;BME280;41155;39.768;2.712;2023-04-20T04:03:43;100724.03;;;12.57;67.93
55291;BME280;41155;39.768;2.712;2023-04-20T04:06:09;100778.41;;;12.98;67.34
55291;BME280;41155;39.768;2.712;2023-04-20T04:08:35;100777.00;;;12.85;67.85
55291;BME280;41155;39.768;2.712;2023-04-20T04:11:01;100747.41;;;12.68;67.49
55291;BME280;41155;39.768;2.712;2023-04-20T04:13:27;100678.56;;;12.06;67.92
55291;BME280;41155;39.768;2.712;2023-04-20T04:15:53;100706.53;;;12.22;68.22
55291;BME280;41155;39.768;2.712;2023-04-20T04:18:19;100771.50;;;12.64;68.44
55291;BME280;41155;39.768;2.712;2023-04-20T04:20:46;100777.22;;;12.78;68.06
55291;BME280;41155;39.768;2.712;2023-04-20T04:23:11;100757.34;;;12.57;68.06
55291;BME280;41155;39.768;2.712;2023-04-20T04:25:37;100774.72;;;12.61;68.02
55291;BME280;41155;39.768;2.712;2023-04-20T04:28:04;100776.59;;;12.61;68.35
55291;BME280;41155;39.768;2.712;2023-04-20T04:30:30;100717.94;;;12.24;68.22
55291;BME280;41155;39.768;2.712;2023-04-20T04:33:21;100773.38;;;12.64;68.22
55291;BME280;41155;39.768;2.712;2023-04-20T04:35:46;100775.84;;;12.71;67.93
55291;BME280;41155;39.768;2.712;2023-04-20T04:38:15;100757.63;;;12.56;67.84
55291;BME280;41155;39.768;2.712;2023-04-20T04:40:41;100778.78;;;12.59;68.28
55291;BME280;41155;39.768;2.712;2023-04-20T04:43:09;100767.59;;;12.45;68.44
55291;BME280;41155;39.768;2.712;2023-04-20T04:45:38;100749.94;;;12.37;68.12
55291;BME280;41155;39.768;2.712;2023-04-20T04:48:08;100702.66;;;12.08;68.24
55291;BME280;41155;39.768;2.712;2023-04-20T04:50:39;100743.34;;;12.23;68.20
55291;BME280;41155;39.768;2.712;2023-04-20T04:53:06;100779.06;;;12.62;67.66
55291;BME280;41155;39.768;2.712;2023-04-20T04:55:33;100773.38;;;12.59;67.49
55291;BME280;41155;39.768;2.712;2023-04-20T04:57:58;100775.22;;;12.53;67.85
55291;BME280;41155;39.768;2.712;2023-04-20T05:00:26;100774.91;;;12.44;68.17
55291;BME280;41155;39.768;2.712;2023-04-20T05:02:53;100776.84;;;12.12;70.03
55291;BME280;41155;39.768;2.712;2023-04-20T05:05:19;100749.97;;;12.00;69.85
55291;BME280;41155;39.768;2.712;2023-04-20T05:07:46;100751.91;;;12.05;69.83
55291;BME280;41155;39.768;2.712;2023-04-20T05:10:11;100775.00;;;12.17;69.93
55291;BME280;41155;39.768;2.712;2023-04-20T05:12:37;100669.81;;;11.57;70.25
55291;BME280;41155;39.768;2.712;2023-04-20T05:15:03;100663.63;;;11.61;69.88
55291;BME280;41155;39.768;2.712;2023-04-20T05:17:29;100669.63;;;11.68;69.85
55291;BME280;41155;39.768;2.712;2023-04-20T05:19:55;100661.78;;;11.67;69.31
55291;BME280;41155;39.768;2.712;2023-04-20T05:22:20;100760.72;;;12.27;69.33
55291;BME280;41155;39.768;2.712;2023-04-20T05:24:55;100722.69;;;12.07;69.19
55291;BME280;41155;39.768;2.712;2023-04-20T05:27:21;100693.31;;;11.88;69.15
55291;BME280;41155;39.768;2.712;2023-04-20T05:29:49;100779.78;;;12.48;68.95
55291;BME280;41155;39.768;2.712;2023-04-20T05:32:14;100746.63;;;12.25;68.70
55291;BME280;41155;39.768;2.712;2023-04-20T05:34:40;100730.53;;;12.08;68.68
55291;BME280;41155;39.768;2.712;2023-04-20T05:37:05;100763.44;;;12.32;68.70
55291;BME280;41155;39.768;2.712;2023-04-20T05:39:31;100680.81;;;11.82;68.69
55291;BME280;41155;39.768;2.712;2023-04-20T05:41:56;100771.50;;;12.70;68.15
55291;BME280;41155;39.768;2.712;2023-04-20T05:44:22;100776.91;;;12.70;67.39
55291;BME280;41155;39.768;2.712;2023-04-20T05:46:47;100714.13;;;12.25;67.45
55291;BME280;41155;39.768;2.712;2023-04-20T05:49:14;100702.75;;;12.18;67.37
55291;BME280;41155;39.768;2.712;2023-04-20T05:51:49;100741.59;;;12.49;67.26
55291;BME280;41155;39.768;2.712;2023-04-20T05:54:15;100723.66;;;12.38;67.27
55291;BME280;41155;39.768;2.712;2023-04-20T05:56:40;100690.84;;;12.29;66.89
55291;BME280;41155;39.768;2.712;2023-04-20T05:59:06;100750.63;;;12.65;66.49
55291;BME280;41155;39.768;2.712;2023-04-20T06:01:41;100655.63;;;12.19;66.26
55291;BME280;41155;39.768;2.712;2023-04-20T06:04:07;100705.66;;;12.59;65.98
55291;BME280;41155;39.768;2.712;2023-04-20T06:06:32;100709.41;;;12.58;66.02
55291;BME280;41155;39.768;2.712;2023-04-20T06:09:01;100774.09;;;13.02;66.13
55291;BME280;41155;39.768;2.712;2023-04-20T06:11:26;100753.16;;;12.82;66.54
55291;BME280;41155;39.768;2.712;2023-04-20T06:13:52;100752.22;;;12.56;67.52
55291;BME280;41155;39.768;2.712;2023-04-20T06:16:17;100743.31;;;12.65;67.37
55291;BME280;41155;39.768;2.712;2023-04-20T06:18:43;100777.88;;;13.01;66.74
55291;BME280;41155;39.768;2.712;2023-04-20T06:21:09;100718.44;;;12.74;66.38
55291;BME280;41155;39.768;2.712;2023-04-20T06:23:35;100770.84;;;13.05;66.51
55291;BME280;41155;39.768;2.712;2023-04-20T06:26:02;100782.63;;;13.31;66.28
55291;BME280;41155;39.768;2.712;2023-04-20T06:28:41;100651.97;;;12.46;66.43
55291;BME280;41155;39.768;2.712;2023-04-20T06:31:07;100716.09;;;13.03;66.26
55291;BME280;41155;39.768;2.712;2023-04-20T06:33:38;100792.72;;;13.66;65.38
55291;BME280;41155;39.768;2.712;2023-04-20T06:36:08;100754.97;;;13.44;65.12
55291;BME280;41155;39.768;2.712;2023-04-20T06:38:36;100787.00;;;13.63;65.30
55291;BME280;41155;39.768;2.712;2023-04-20T06:41:01;100788.91;;;13.88;64.42
55291;BME280;41155;39.768;2.712;2023-04-20T06:43:30;100717.25;;;13.53;64.21
55291;BME280;41155;39.768;2.712;2023-04-20T06:45:55;100793.25;;;14.14;63.48
55291;BME280;41155;39.768;2.712;2023-04-20T06:48:21;100722.72;;;13.68;63.07
55291;BME280;41155;39.768;2.712;2023-04-20T06:50:47;100785.34;;;14.33;62.45
55291;BME280;41155;39.768;2.712;2023-04-20T06:53:16;100679.53;;;13.87;61.71
55291;BME280;41155;39.768;2.712;2023-04-20T06:55:41;100699.34;;;13.93;61.31
55291;BME280;41155;39.768;2.712;2023-04-20T06:58:16;100664.34;;;13.86;61.30
55291;BME280;41155;39.768;2.712;2023-04-20T07:00:42;100674.34;;;14.01;60.99
55291;BME280;41155;39.768;2.712;2023-04-20T07:03:11;100602.22;;;13.69;59.37
55291;BME280;41155;39.768;2.712;2023-04-20T07:05:37;100708.47;;;14.38;59.69
55291;BME280;41155;39.768;2.712;2023-04-20T07:08:07;100699.47;;;14.42;59.58
55291;BME280;41155;39.768;2.712;2023-04-20T07:10:38;100778.94;;;14.99;59.83
55291;BME280;41155;39.768;2.712;2023-04-20T07:13:16;100769.59;;;15.15;59.37
55291;BME280;41155;39.768;2.712;2023-04-20T07:15:44;100774.44;;;15.24;58.94
55291;BME280;41155;39.768;2.712;2023-04-20T07:18:09;100760.25;;;15.32;58.14
55291;BME280;41155;39.768;2.712;2023-04-20T07:20:38;100622.16;;;14.84;56.73
55291;BME280;41155;39.768;2.712;2023-04-20T07:23:12;100608.28;;;14.81;56.59
55291;BME280;41155;39.768;2.712;2023-04-20T07:25:37;100695.16;;;15.41;56.00
55291;BME280;41155;39.768;2.712;2023-04-20T07:28:03;100699.06;;;15.69;55.00
55291;BME280;41155;39.768;2.712;2023-04-20T07:30:37;100589.88;;;15.07;54.05
55291;BME280;41155;39.768;2.712;2023-04-20T07:33:02;100753.59;;;16.17;54.49
55291;BME280;41155;39.768;2.712;2023-04-20T07:35:28;100759.53;;;16.24;53.99
55291;BME280;41155;39.768;2.712;2023-04-20T07:38:09;100759.50;;;16.29;54.05
55291;BME280;41155;39.768;2.712;2023-04-20T07:40:50;100724.47;;;16.17;53.72
55291;BME280;41155;39.768;2.712;2023-04-20T07:43:15;100702.28;;;16.29;53.51
55291;BME280;41155;39.768;2.712;2023-04-20T07:45:53;100750.66;;;16.66;52.68
55291;BME280;41155;39.768;2.712;2023-04-20T07:48:18;100583.28;;;15.76;51.38
55291;BME280;41155;39.768;2.712;2023-04-20T07:50:50;100581.03;;;15.84;51.18
55291;BME280;41155;39.768;2.712;2023-04-20T07:53:16;100655.28;;;16.37;51.24
55291;BME280;41155;39.768;2.712;2023-04-20T07:55:53;100597.94;;;16.04;50.82
55291;BME280;41155;39.768;2.712;2023-04-20T07:58:19;100687.00;;;16.76;50.90
55291;BME280;41155;39.768;2.712;2023-04-20T08:01:13;100697.84;;;17.00;49.69
55291;BME280;41155;39.768;2.712;2023-04-20T08:03:47;100562.22;;;16.30;49.17
55291;BME280;41155;39.768;2.712;2023-04-20T08:06:13;100754.16;;;17.67;46.58
55291;BME280;41155;39.768;2.712;2023-04-20T08:08:48;100718.34;;;17.54;44.94
55291;BME280;41155;39.768;2.712;2023-04-20T08:11:13;100677.13;;;17.37;43.47
55291;BME280;41155;39.768;2.712;2023-04-20T08:13:39;100752.97;;;17.92;43.72
55291;BME280;41155;39.768;2.712;2023-04-20T08:16:05;100720.72;;;17.94;43.05
55291;BME280;41155;39.768;2.712;2023-04-20T08:18:40;100581.75;;;17.27;43.80
55291;BME280;41155;39.768;2.712;2023-04-20T08:21:06;100638.09;;;17.69;42.60
55291;BME280;41155;39.768;2.712;2023-04-20T08:23:37;100615.22;;;17.65;42.15
55291;BME280;41155;39.768;2.712;2023-04-20T08:26:03;100743.66;;;18.53;42.91
55291;BME280;41155;39.768;2.712;2023-04-20T08:28:38;100619.31;;;17.81;44.21
55291;BME280;41155;39.768;2.712;2023-04-20T08:31:03;100616.69;;;17.90;44.57
55291;BME280;41155;39.768;2.712;2023-04-20T08:33:29;100654.34;;;18.35;44.97
55291;BME280;41155;39.768;2.712;2023-04-20T08:36:01;100669.31;;;18.51;44.37
55291;BME280;41155;39.768;2.712;2023-04-20T08:38:26;100658.69;;;18.49;43.58
55291;BME280;41155;39.768;2.712;2023-04-20T08:40:52;100649.25;;;18.56;43.76
55291;BME280;41155;39.768;2.712;2023-04-20T08:43:26;100736.06;;;19.28;42.87
55291;BME280;41155;39.768;2.712;2023-04-20T08:45:56;100649.25;;;18.69;44.63
55291;BME280;41155;39.768;2.712;2023-04-20T08:48:24;100742.50;;;19.46;41.05
55291;BME280;41155;39.768;2.712;2023-04-20T08:50:59;100646.78;;;18.95;40.79
55291;BME280;41155;39.768;2.712;2023-04-20T08:53:35;100702.59;;;19.31;40.95
55291;BME280;41155;39.768;2.712;2023-04-20T08:56:03;100745.63;;;19.75;44.57
55291;BME280;41155;39.768;2.712;2023-04-20T08:58:31;100633.66;;;19.06;46.62
55291;BME280;41155;39.768;2.712;2023-04-20T09:00:57;100728.38;;;19.75;47.00
55291;BME280;41155;39.768;2.712;2023-04-20T09:03:35;100641.75;;;19.34;46.89
55291;BME280;41155;39.768;2.712;2023-04-20T09:06:02;100735.88;;;20.14;47.46
55291;BME280;41155;39.768;2.712;2023-04-20T09:08:38;100737.28;;;20.34;49.80
55291;BME280;41155;39.768;2.712;2023-04-20T09:11:04;100656.66;;;20.04;49.68
55291;BME280;41155;39.768;2.712;2023-04-20T09:13:30;100664.13;;;20.61;49.43
55291;BME280;41155;39.768;2.712;2023-04-20T09:15:56;100743.31;;;21.63;49.11
55291;BME280;41155;39.768;2.712;2023-04-20T09:18:21;100683.19;;;21.79;45.93
55291;BME280;41155;39.768;2.712;2023-04-20T09:20:49;100758.19;;;22.73;45.06
55291;BME280;41155;39.768;2.712;2023-04-20T09:23:15;100756.91;;;23.30;43.14
55291;BME280;41155;39.768;2.712;2023-04-20T09:25:42;100755.59;;;24.03;41.96
55291;BME280;41155;39.768;2.712;2023-04-20T09:28:11;100718.75;;;24.32;41.72
55291;BME280;41155;39.768;2.712;2023-04-20T09:30:42;100761.56;;;25.40;39.85
55291;BME280;41155;39.768;2.712;2023-04-20T09:33:17;100680.91;;;25.94;37.90
55291;BME280;41155;39.768;2.712;2023-04-20T09:36:04;100747.97;;;27.57;36.05
55291;BME280;41155;39.768;2.712;2023-04-20T09:38:42;100658.28;;;28.41;32.90
55291;BME280;41155;39.768;2.712;2023-04-20T09:41:08;100702.78;;;30.51;30.45
55291;BME280;41155;39.768;2.712;2023-04-20T09:43:34;100720.16;;;30.89;30.57
55291;BME280;41155;39.768;2.712;2023-04-20T09:46:01;100653.84;;;31.34;28.71
55291;BME280;41155;39.768;2.712;2023-04-20T09:48:27;100666.66;;;31.67;27.93
55291;BME280;41155;39.768;2.712;2023-04-20T09:50:54;100618.81;;;31.54;28.28
55291;BME280;41155;39.768;2.712;2023-04-20T09:53:19;100756.69;;;34.16;25.44
55291;BME280;41155;39.768;2.712;2023-04-20T09:55:46;100707.75;;;34.73;24.20
55291;BME280;41155;39.768;2.712;2023-04-20T09:58:22;100693.31;;;35.40;23.93
55291;BME280;41155;39.768;2.712;2023-04-20T10:00:48;100667.72;;;36.99;21.12
55291;BME280;41155;39.768;2.712;2023-04-20T10:03:18;100741.56;;;37.26;21.22
55291;BME280;41155;39.768;2.712;2023-04-20T10:05:44;100684.38;;;37.66;20.02
55291;BME280;41155;39.768;2.712;2023-04-20T10:08:19;100742.59;;;39.54;18.93
55291;BME280;41155;39.768;2.712;2023-04-20T10:10:49;100670.16;;;39.48;18.70
55291;BME280;41155;39.768;2.712;2023-04-20T10:13:15;100711.03;;;41.12;17.40
55291;BME280;41155;39.768;2.712;2023-04-20T10:15:43;100735.72;;;41.42;16.69
55291;BME280;41155;39.768;2.712;2023-04-20T10:18:19;100603.81;;;42.09;15.39
55291;BME280;41155;39.768;2.712;2023-04-20T10:20:47;100692.22;;;42.91;15.39
55291;BME280;41155;39.768;2.712;2023-04-20T10:23:14;100710.53;;;42.80;15.13
55291;BME280;41155;39.768;2.712;2023-04-20T10:25:40;100604.59;;;42.19;15.17
55291;BME280;41155;39.768;2.712;2023-04-20T10:28:17;100704.97;;;42.12;15.74
55291;BME280;41155;39.768;2.712;2023-04-20T10:30:50;100711.59;;;41.60;16.35
55291;BME280;41155;39.768;2.712;2023-04-20T10:33:17;100724.38;;;41.42;16.72
55291;BME280;41155;39.768;2.712;2023-04-20T10:35:52;100711.88;;;40.42;16.92
55291;BME280;41155;39.768;2.712;2023-04-20T10:38:35;100710.75;;;41.19;16.45
55291;BME280;41155;39.768;2.712;2023-04-20T10:41:16;100667.63;;;42.23;15.22
55291;BME280;41155;39.768;2.712;2023-04-20T10:43:42;100630.34;;;41.25;15.66
55291;BME280;41155;39.768;2.712;2023-04-20T10:46:20;100696.34;;;42.43;15.35
55291;BME280;41155;39.768;2.712;2023-04-20T10:48:57;100708.63;;;42.86;15.07
55291;BME280;41155;39.768;2.712;2023-04-20T10:51:25;100631.38;;;42.73;14.87
55291;BME280;41155;39.768;2.712;2023-04-20T10:54:18;100706.38;;;41.49;16.25
55291;BME280;41155;39.768;2.712;2023-04-20T10:56:49;100630.16;;;42.37;14.94
55291;BME280;41155;39.768;2.712;2023-04-20T10:59:21;100644.59;;;40.81;15.98
55291;BME280;41155;39.768;2.712;2023-04-20T11:01:48;100608.88;;;41.46;15.45
55291;BME280;41155;39.768;2.712;2023-04-20T11:04:14;100614.19;;;41.26;15.77
55291;BME280;41155;39.768;2.712;2023-04-20T11:06:51;100662.75;;;38.57;18.49
55291;BME280;41155;39.768;2.712;2023-04-20T11:09:21;100660.16;;;38.63;18.31
55291;BME280;41155;39.768;2.712;2023-04-20T11:14:24;100583.84;;;37.95;18.65
55291;BME280;41155;39.768;2.712;2023-04-20T11:16:52;100614.88;;;39.08;18.00
55291;BME280;41155;39.768;2.712;2023-04-20T11:19:35;100524.34;;;39.03;17.01
55291;BME280;41155;39.768;2.712;2023-04-20T11:22:03;100596.56;;;40.25;16.38
55291;BME280;41155;39.768;2.712;2023-04-20T11:24:33;100598.72;;;39.73;16.59
55291;BME280;41155;39.768;2.712;2023-04-20T11:27:00;100644.13;;;41.45;15.80
55291;BME280;41155;39.768;2.712;2023-04-20T11:29:37;100611.22;;;40.76;15.95
55291;BME280;41155;39.768;2.712;2023-04-20T11:34:44;100576.50;;;41.57;14.97
55291;BME280;41155;39.768;2.712;2023-04-20T11:37:10;100635.19;;;42.24;14.66
55291;BME280;41155;39.768;2.712;2023-04-20T11:39:38;100566.78;;;42.31;13.77
55291;BME280;41155;39.768;2.712;2023-04-20T11:42:04;100626.59;;;40.66;14.25
55291;BME280;41155;39.768;2.712;2023-04-20T11:44:30;100629.16;;;42.68;14.14
55291;BME280;41155;39.768;2.712;2023-04-20T11:47:00;100637.66;;;38.47;15.64
55291;BME280;41155;39.768;2.712;2023-04-20T11:49:27;100617.84;;;35.18;18.41
55291;BME280;41155;39.768;2.712;2023-04-20T11:51:53;100578.34;;;30.07;24.31
55291;BME280;41155;39.768;2.712;2023-04-20T11:54:20;100596.84;;;29.40;24.89
55291;BME280;41155;39.768;2.712;2023-04-20T11:56:46;100596.59;;;28.55;25.56
55291;BME280;41155;39.768;2.712;2023-04-20T11:59:12;100604.91;;;28.81;26.06
55291;BME280;41155;39.768;2.712;2023-04-20T12:01:44;100599.09;;;30.20;24.30
55291;BME280;41155;39.768;2.712;2023-04-20T12:04:10;100589.78;;;29.94;24.31
55291;BME280;41155;39.768;2.712;2023-04-20T12:06:36;100585.69;;;28.69;24.96
55291;BME280;41155;39.768;2.712;2023-04-20T12:09:05;100534.16;;;28.75;24.61
55291;BME280;41155;39.768;2.712;2023-04-20T12:11:30;100562.00;;;28.79;25.15
55291;BME280;41155;39.768;2.712;2023-04-20T12:13:59;100567.44;;;27.19;27.95
55291;BME280;41155;39.768;2.712;2023-04-20T12:16:24;100551.31;;;29.15;23.85
55291;BME280;41155;39.768;2.712;2023-04-20T12:18:50;100577.78;;;28.71;25.57
55291;BME280;41155;39.768;2.712;2023-04-20T12:21:16;100550.19;;;27.76;27.34
55291;BME280;41155;39.768;2.712;2023-04-20T12:23:42;100559.47;;;27.60;26.65
55291;BME280;41155;39.768;2.712;2023-04-20T12:26:08;100576.03;;;27.57;27.17
55291;BME280;41155;39.768;2.712;2023-04-20T12:28:34;100535.00;;;27.89;25.75
55291;BME280;41155;39.768;2.712;2023-04-20T12:30:59;100570.94;;;27.82;25.88
55291;BME280;41155;39.768;2.712;2023-04-20T12:33:25;100538.22;;;26.83;27.66
55291;BME280;41155;39.768;2.712;2023-04-20T12:35:50;100565.38;;;27.82;24.93
55291;BME280;41155;39.768;2.712;2023-04-20T12:38:17;100571.78;;;27.63;26.03
55291;BME280;41155;39.768;2.712;2023-04-20T12:40:43;100588.28;;;28.55;25.92
55291;BME280;41155;39.768;2.712;2023-04-20T12:43:12;100572.91;;;29.28;24.81
55291;BME280;41155;39.768;2.712;2023-04-20T12:45:37;100567.19;;;26.31;28.82
55291;BME280;41155;39.768;2.712;2023-04-20T12:48:03;100577.75;;;26.80;27.38
55291;BME280;41155;39.768;2.712;2023-04-20T12:50:29;100566.00;;;26.67;29.06
55291;BME280;41155;39.768;2.712;2023-04-20T12:52:54;100563.63;;;27.27;28.33
55291;BME280;41155;39.768;2.712;2023-04-20T12:55:22;100573.28;;;28.33;24.89
55291;BME280;41155;39.768;2.712;2023-04-20T12:57:48;100569.13;;;27.24;27.29
55291;BME280;41155;39.768;2.712;2023-04-20T13:00:14;100550.78;;;26.06;28.22